| PODSKLAD | TVEGANJE | ZADNJI VEP |
DATUM VEP |
1D (%) | 12M (%) | 36M (%) | 60M (%) | MORNING STAR NAGRADA |
|---|---|---|---|---|---|---|---|---|
| Denarni | ||||||||
| Eurizon F Bond USD Short Term LTE - R | 3 | 124,32 | 01.09.2026 | 0,10 | 3,11 | 4,30 | 11,37 | |
| Eurizon F Cash EUR - R | 1 | 117,51 | 01.09.2026 | 0,01 | 1,65 | 7,75 | 7,91 | |
| Obvezniški | ||||||||
| Eurizon F Bond Corporate EUR - R | 2 | 102,20 | 01.09.2026 | -0,23 | 0,04 | 11,95 | -4,49 | |
| Eurizon F Bond Corporate EUR Short Term - R | 2 | 70,29 | 01.09.2026 | -0,10 | 1,03 | 10,16 | 4,01 | |
| Eurizon F Bond Emerging Markets - R | 3 | 415,25 | 01.09.2026 | -0,17 | 8,41 | 19,87 | 7,32 | |
| Eurizon F Bond EUR Long Term LTE - R | 3 | 208,02 | 01.09.2026 | -0,16 | -1,36 | 2,94 | -22,97 | |
| Eurizon F Bond EUR Medium Term LTE - R | 2 | 327,94 | 01.09.2026 | -0,08 | -0,44 | 6,72 | -3,86 | |
| Eurizon F Bond EUR Short Term LTE - R | 2 | 141,76 | 01.09.2026 | -0,03 | 0,49 | 6,69 | 2,30 | |
| Eurizon F Bond High Yield - R | 2 | 268,21 | 01.09.2026 | -0,12 | 2,23 | 21,78 | 9,34 | |
| Eurizon F Bond Short Term EUR T1 - A | 2 | 102,09 | 01.09.2026 | -0,01 | 1,16 | 7,11 | 5,08 | |
| Eurizon F Global Bond - R | 3 | 97,74 | 01.09.2026 | -0,08 | 1,44 | 0,33 | -10,62 | |
| Eurizon F II Euro Bond - R | 3 | 159,38 | 01.09.2026 | -0,12 | -1,50 | 3,41 | -12,84 | |
| Templeton Global Total Return Fund - acc - A | 5 | 25,05 | 01.09.2026 | 0,16 | 11,19 | 16,03 | 7,10 | |
| Templeton Global Total Return Fund - acc - N | 5 | 21,32 | 01.09.2026 | 0,19 | 10,41 | 13,59 | 3,44 | |
| Templeton Global Total Return Fund - acc - H1 - N | 4 | 14,05 | 01.09.2026 | -0,07 | 7,09 | 14,60 | -10,34 | |
| Templeton Global Total Return Fund - acc - H1 - A | 4 | 16,54 | 01.09.2026 | -0,06 | 7,75 | 16,97 | -7,18 | |
| Mešani | ||||||||
| Eurizon Manager Selection Fund MS10 - R | 2 | 158,30 | 01.09.2026 | -0,17 | 2,00 | 11,88 | -4,33 | |
| Eurizon Manager Selection Fund MS20 - R | 2 | 174,90 | 01.09.2026 | -0,21 | 4,01 | 16,11 | 2,15 | |
| Eurizon Manager Selection Fund MS40 - R | 3 | 199,58 | 01.09.2026 | -0,27 | 6,43 | 20,24 | 9,45 | |
| Eurizon Manager Selection Fund MS70 - R | 3 | 290,03 | 01.09.2026 | -0,40 | 12,34 | 34,01 | 28,16 | |
| Delniški | ||||||||
| Eurizon F Equity China Smart Volatility - R | 5 | 122,46 | 01.09.2026 | -0,61 | -6,02 | 20,78 | -13,12 | |
| Eurizon F Equity Emerging Markets Smart Volatility - R | 4 | 287,19 | 01.09.2026 | 0,50 | 33,59 | 51,38 | 25,80 | |
| Eurizon F Equity Innovation - R | 4 | 225,80 | 01.09.2026 | -0,87 | 24,93 | 61,42 | 62,82 | |
| Eurizon F Equity People - R | 4 | 149,52 | 01.09.2026 | -1,17 | 16,36 | 29,50 | 20,85 | |
| Eurizon F Equity Planet - R | 4 | 167,30 | 01.09.2026 | -0,74 | 13,78 | 36,78 | 29,09 | |
| Eurizon F Equity Small Mid Cap Europe - R | 4 | 1.087,47 | 01.09.2026 | -0,82 | 16,88 | 51,35 | 20,07 | |
| Eurizon F Equity World Smart Volatility - R | 4 | 184,71 | 01.09.2026 | -0,46 | 16,07 | 43,55 | 46,46 | |
| Eurizon F Equity World Smart Volatility - RH | 4 | 149,19 | 01.09.2026 | -0,57 | 13,74 | 46,14 | 34,84 | |
| Eurizon F Sustainable Global Equity - R | 4 | 178,37 | 01.09.2026 | -0,59 | 7,73 | 34,41 | 24,33 | |
| Eurizon F Top European Research - R | 4 | 193,23 | 01.09.2026 | -0,60 | 17,62 | 46,39 | 49,10 | |
| Eurizon F Top US Research - R | 4 | 348,52 | 01.09.2026 | -0,52 | 20,58 | 57,36 | 69,61 | |
| Franklin Global Real Estate Fund(Acc) EUR - H1 - A | 5 | 15,33 | 01.09.2026 | -0,13 | 4,64 | 14,40 | -18,72 | |
| Franklin Global Real Estate Fund(Acc) EUR - H1 - N | 5 | 13,55 | 01.09.2026 | -0,07 | 3,99 | 12,08 | -21,72 | |
| Franklin India Fund - acc - A | 6 | 64,03 | 01.09.2026 | -0,34 | -7,38 | 3,51 | 16,16 | |
| Franklin India Fund - acc - N | 6 | 54,98 | 01.09.2026 | -0,34 | -8,06 | 1,22 | 11,88 | |
| Franklin Japan Fund - acc - A | 6 | 13,34 | 01.09.2026 | -0,60 | 16,51 | 65,51 | 64,49 | |
| Franklin Japan Fund - acc - N | 6 | 10,95 | 01.09.2026 | -0,64 | 15,51 | 61,74 | 58,47 | |
| Franklin Mutual European Fund - acc - A | 5 | 44,52 | 01.09.2026 | -0,56 | 19,07 | 54,42 | 65,93 | |
| Franklin Mutual European Fund - acc - N | 5 | 34,27 | 01.09.2026 | -0,55 | 18,17 | 51,04 | 59,84 | |
| Franklin U.S. Opportunities Fund - acc - A | 6 | 34,20 | 01.09.2026 | -0,96 | 6,94 | 40,68 | 21,19 | |
| Franklin U.S. Opportunities Fund - acc - N | 6 | 64,10 | 01.09.2026 | -0,96 | 6,16 | 37,55 | 16,78 | |
| Franklin U.S. Opportunities Fund - acc - H1 - A | 5 | 21,66 | 01.09.2026 | -1,19 | 3,59 | 42,69 | 3,74 | |
| Templeton Asian Growth Fund - acc - A | 6 | 54,17 | 01.09.2026 | -0,24 | 50,93 | 74,80 | 39,54 | |
| Templeton Asian Growth Fund - acc - N | 6 | 70,11 | 01.09.2026 | -0,24 | 50,19 | 72,22 | 36,11 | |
| Templeton Asian Growth Fund - acc - H1 - A | 6 | 32,89 | 01.09.2026 | -0,48 | 46,18 | 76,54 | 19,17 | |
| Templeton BRIC Fund - acc - A | 6 | 29,72 | 01.09.2026 | 0,34 | 12,58 | 50,63 | 20,52 | |
| Templeton BRIC Fund - acc - N | 6 | 26,79 | 01.09.2026 | 0,30 | 12,00 | 48,42 | 17,55 | |
| Templeton BRIC Fund - acc - H1 - A | 6 | 14,23 | 01.09.2026 | 0,07 | 9,21 | 52,19 | 2,45 | |
| Templeton Emerging Markets Fund - acc - N | 6 | 38,14 | 01.09.2026 | -0,03 | 51,17 | 89,47 | 62,44 | |
| Templeton Growth (Euro) Fund – acc - A | 5 | 26,05 | 01.09.2026 | -1,25 | 11,28 | 31,70 | 37,32 | |
| Templeton Growth (Euro) Fund – acc - N | 5 | 21,31 | 01.09.2026 | -1,30 | 10,41 | 28,76 | 32,20 | |
| fleksibilni | ||||||||
| Eurizon F Absolute Prudent - R | 2 | 126,76 | 01.09.2026 | -0,20 | 0,48 | 9,14 | 4,73 | |
| Eurizon F Bond Flexible - R | 3 | 98,19 | 01.09.2026 | -0,19 | 0,07 | 9,09 | -5,40 | |
| Eurizon F Flexible Equity Strategy - R | 4 | 206,94 | 01.09.2026 | -0,18 | 8,35 | 22,84 | 15,63 | |
| Eurizon F Flexible Equity Strategy - RL | 4 | 219,93 | 01.09.2026 | -0,18 | 8,77 | 24,30 | 17,94 | |
| Eurizon F Flexible Multistrategy - R | 3 | 104,73 | 01.09.2026 | -0,18 | 2,70 | 8,90 | 4,95 | |
Opozorilo: z dnem, 1. 1. 2019, je investicijski sklad v Republiki Sloveniji prenehal z neposrednim oglaševanjem, trženjem oziroma prodajo enot premoženja, kar velja za naslednje podsklade:
- Templeton Global Total Return Fund - acc - A
- Templeton Global Total Return Fund - acc - N
- Templeton Global Total Return Fund - acc - H1 - N
- Templeton Global Total Return Fund - acc - H1 - A
- Franklin India Fund - acc - A
- Franklin India Fund - acc - N
- Franklin Japan Fund - acc - A
- Franklin Japan Fund - acc - N
- Franklin U.S. Opportunities Fund - acc - A
- Franklin U.S. Opportunities Fund - acc - N
- Franklin U.S. Opportunities Fund - acc - H1 - A
- Templeton Asian Growth Fund - acc - A
- Templeton Asian Growth Fund - acc - N
- Templeton Asian Growth Fund - acc - H1 - A
- Templeton BRIC Fund - acc - A
- Templeton BRIC Fund - acc - N
- Templeton BRIC Fund - acc - H1 - A
- Templeton Growth (Euro) Fund – acc - A
- Templeton Growth (Euro) Fund – acc - N


